createdAt,value
2018-06-10T00:00:20.904Z,85.00
2018-06-10T00:02:49.810Z,85.60
2018-06-10T00:05:18.787Z,84.50
2018-06-10T00:07:47.668Z,84.30
2018-06-10T00:10:16.660Z,84.10
2018-06-10T00:12:45.526Z,84.10
2018-06-10T00:15:14.419Z,83.90
2018-06-10T00:17:43.312Z,84.10
2018-06-10T00:20:12.145Z,84.30
2018-06-10T00:22:41.084Z,84.40
2018-06-10T00:25:09.960Z,84.80
2018-06-10T00:27:38.836Z,85.10
2018-06-10T00:30:07.714Z,84.70
2018-06-10T00:32:37.401Z,85.00
2018-06-10T00:35:06.376Z,84.80
2018-06-10T00:37:35.272Z,85.10
2018-06-10T00:40:04.224Z,85.60
2018-06-10T00:42:33.098Z,85.80
2018-06-10T00:45:01.952Z,85.40
2018-06-10T00:47:30.936Z,85.50
2018-06-10T00:49:59.828Z,85.60
2018-06-10T00:52:28.696Z,85.30
2018-06-10T00:54:57.612Z,85.10
2018-06-10T00:57:26.467Z,85.30
2018-06-10T00:59:55.372Z,85.10
2018-06-10T01:02:24.271Z,84.90
2018-06-10T01:04:53.114Z,85.30
2018-06-10T01:07:22.107Z,86.00
2018-06-10T01:09:50.964Z,86.30
2018-06-10T01:12:19.900Z,86.40
2018-06-10T01:14:48.744Z,86.70
2018-06-10T01:17:17.659Z,87.10
2018-06-10T01:19:46.545Z,87.70
2018-06-10T01:22:15.395Z,87.70
2018-06-10T01:24:44.331Z,87.20
2018-06-10T01:27:13.684Z,87.00
2018-06-10T01:29:42.576Z,86.20
2018-06-10T01:32:11.420Z,85.90
2018-06-10T01:34:40.300Z,85.90
2018-06-10T01:37:09.156Z,85.80
2018-06-10T01:39:38.127Z,86.20
2018-06-10T01:42:07.007Z,86.30
2018-06-10T01:44:35.938Z,86.40
2018-06-10T01:47:04.884Z,87.00
2018-06-10T01:52:02.237Z,87.80
2018-06-10T01:54:31.125Z,88.60
2018-06-10T01:56:59.988Z,89.20
2018-06-10T01:59:28.841Z,88.60
2018-06-10T02:01:57.759Z,88.30
2018-06-10T02:04:26.645Z,87.80
2018-06-10T02:06:55.480Z,87.80
2018-06-10T02:09:24.368Z,88.20
2018-06-10T02:14:21.748Z,88.60
2018-06-10T02:16:50.584Z,88.60
2018-06-10T02:19:19.468Z,88.40
2018-06-10T02:21:48.388Z,88.30
2018-06-10T02:24:17.292Z,88.30
2018-06-10T02:26:46.185Z,89.30
2018-06-10T02:31:43.501Z,90.30
2018-06-10T02:34:12.398Z,90.30
2018-06-10T02:36:41.247Z,90.20
2018-06-10T02:39:10.168Z,90.00
2018-06-10T02:41:39.020Z,89.70
2018-06-10T02:44:07.904Z,89.30
2018-06-10T02:46:36.798Z,88.90
2018-06-10T02:49:05.728Z,88.30
2018-06-10T02:51:34.607Z,87.90
2018-06-10T02:54:03.448Z,87.90
2018-06-10T02:59:00.812Z,88.00
2018-06-10T03:03:58.080Z,87.90
2018-06-10T03:08:55.394Z,87.90
2018-06-10T03:11:24.284Z,88.10
2018-06-10T03:13:53.127Z,88.40
2018-06-10T03:16:21.997Z,88.90
2018-06-10T03:18:50.899Z,89.60
2018-06-10T03:23:48.468Z,90.10
2018-06-10T03:26:17.346Z,90.30
2018-06-10T03:28:46.184Z,90.20
2018-06-10T03:31:15.072Z,90.20
2018-06-10T03:33:43.896Z,90.10
2018-06-10T03:36:12.772Z,89.80
2018-06-10T03:38:41.676Z,89.40
2018-06-10T03:41:10.538Z,89.00
2018-06-10T03:43:39.403Z,88.60
2018-06-10T03:46:08.296Z,88.40
2018-06-10T03:48:37.184Z,88.30
2018-06-10T03:51:06.135Z,88.30
2018-06-10T03:53:35.032Z,88.30
2018-06-10T03:56:03.874Z,88.40
2018-06-10T03:58:32.711Z,88.90
2018-06-10T04:05:58.525Z,88.40
2018-06-10T04:08:27.360Z,88.20
2018-06-10T04:10:56.272Z,88.00
2018-06-10T04:13:25.100Z,87.80
2018-06-10T04:15:54.006Z,88.00
2018-06-10T04:20:51.328Z,87.70
2018-06-10T04:23:20.305Z,87.70
2018-06-10T04:25:49.157Z,87.70
2018-06-10T04:28:18.036Z,87.50
2018-06-10T04:30:46.996Z,88.10
2018-06-10T04:33:15.901Z,87.50
2018-06-10T04:35:44.740Z,87.40
2018-06-10T04:38:13.613Z,87.40
2018-06-10T04:40:42.516Z,87.30
2018-06-10T04:43:11.349Z,87.30
2018-06-10T04:45:40.223Z,87.10
2018-06-10T04:48:09.050Z,87.20
2018-06-10T04:50:37.940Z,87.30
2018-06-10T04:53:06.824Z,87.20
2018-06-10T04:55:35.684Z,87.30
2018-06-10T04:58:04.572Z,87.50
2018-06-10T05:00:33.460Z,87.70
2018-06-10T05:03:02.323Z,88.00
2018-06-10T05:05:31.255Z,87.90
2018-06-10T05:08:00.076Z,89.00
2018-06-10T05:10:28.980Z,88.20
2018-06-10T05:12:58.227Z,88.40
2018-06-10T05:15:27.100Z,88.40
2018-06-10T05:17:55.994Z,88.60
2018-06-10T05:20:24.896Z,88.10
2018-06-10T05:22:53.772Z,88.20
2018-06-10T05:25:22.634Z,87.30
2018-06-10T05:27:51.475Z,87.30
2018-06-10T05:32:48.835Z,87.80
2018-06-10T05:35:17.674Z,88.40
2018-06-10T05:37:46.552Z,87.80
2018-06-10T05:40:15.450Z,88.10
2018-06-10T05:42:44.343Z,87.20
2018-06-10T05:45:13.256Z,87.60
2018-06-10T05:47:42.136Z,86.20
2018-06-10T05:50:10.964Z,86.10
2018-06-10T05:52:39.837Z,85.90
2018-06-10T05:55:08.708Z,84.90
2018-06-10T05:57:37.544Z,84.50
2018-06-10T06:00:06.638Z,84.40
2018-06-10T06:02:35.516Z,84.00
2018-06-10T06:05:04.384Z,83.90
2018-06-10T06:07:33.299Z,83.90
2018-06-10T06:10:02.193Z,83.50
2018-06-10T06:12:31.112Z,82.30
2018-06-10T06:14:59.968Z,82.80
2018-06-10T06:17:28.824Z,82.00
2018-06-10T06:19:57.696Z,81.60
2018-06-10T06:22:26.580Z,81.40
2018-06-10T06:24:55.427Z,81.60
2018-06-10T06:27:24.511Z,81.60
2018-06-10T06:29:53.332Z,83.40
2018-06-10T06:32:22.220Z,84.10
2018-06-10T06:34:51.099Z,83.60
2018-06-10T06:37:19.989Z,83.40
2018-06-10T06:39:48.945Z,81.80
2018-06-10T06:42:17.776Z,81.90
2018-06-10T06:44:46.664Z,80.80
2018-06-10T06:47:15.804Z,79.40
2018-06-10T06:49:44.737Z,77.90
2018-06-10T06:52:13.674Z,77.80
2018-06-10T06:54:42.600Z,76.60
2018-06-10T06:57:11.500Z,76.80
2018-06-10T06:59:40.412Z,76.80
2018-06-10T07:02:09.308Z,76.30
2018-06-10T07:04:38.244Z,76.30
2018-06-10T07:07:07.112Z,77.50
2018-06-10T07:09:36.056Z,76.60
2018-06-10T07:12:04.918Z,76.90
2018-06-10T07:14:33.842Z,75.60
2018-06-10T07:17:02.828Z,76.20
2018-06-10T07:19:31.728Z,75.60
2018-06-10T07:22:00.656Z,75.20
2018-06-10T07:24:29.619Z,75.00
2018-06-10T07:26:58.584Z,75.80
2018-06-10T07:29:27.550Z,75.30
2018-06-10T07:31:56.516Z,74.50
2018-06-10T07:34:25.482Z,74.80
2018-06-10T07:36:54.348Z,74.60
2018-06-10T07:39:23.300Z,73.20
2018-06-10T07:41:52.198Z,72.80
2018-06-10T07:44:21.127Z,72.80
2018-06-10T07:46:49.979Z,73.30
2018-06-10T07:49:18.948Z,72.90
2018-06-10T07:51:47.797Z,71.80
2018-06-10T07:54:16.763Z,71.40
2018-06-10T07:56:45.798Z,70.60
2018-06-10T07:59:14.697Z,69.60
2018-06-10T08:01:46.009Z,68.70
2018-06-10T08:04:16.192Z,69.20
2018-06-10T08:06:47.312Z,68.80
2018-06-10T08:09:18.772Z,68.60
2018-06-10T08:11:48.771Z,68.40
2018-06-10T08:14:17.701Z,69.00
2018-06-10T08:16:50.702Z,68.90
2018-06-10T08:19:26.341Z,68.00
2018-06-10T08:21:57.652Z,66.50
2018-06-10T08:24:28.453Z,66.50
2018-06-10T08:26:57.392Z,66.70
2018-06-10T08:29:27.212Z,65.40
2018-06-10T08:31:56.123Z,65.40
2018-06-10T08:34:25.005Z,64.80
2018-06-10T08:36:53.917Z,61.00
2018-06-10T08:39:22.748Z,59.50
2018-06-10T08:44:20.064Z,58.60
2018-06-10T08:46:49.077Z,60.70
2018-06-10T08:49:18.615Z,60.70
2018-06-10T08:51:47.513Z,59.50
2018-06-10T08:54:16.428Z,60.10
2018-06-10T08:56:45.308Z,60.30
2018-06-10T08:59:14.220Z,59.00
2018-06-10T09:01:43.097Z,58.20
2018-06-10T09:04:12.039Z,57.30
2018-06-10T09:11:38.352Z,57.60
2018-06-10T09:14:07.513Z,56.80
2018-06-10T09:16:36.437Z,57.30
2018-06-10T09:19:07.227Z,56.50
2018-06-10T09:21:36.144Z,56.90
2018-06-10T09:24:05.051Z,55.40
2018-06-10T09:26:33.960Z,55.50
2018-06-10T09:29:02.790Z,55.90
2018-06-10T09:31:31.688Z,56.10
2018-06-10T09:34:00.525Z,55.10
2018-06-10T09:36:29.483Z,54.80
2018-06-10T09:38:59.584Z,55.10
2018-06-10T09:41:43.003Z,55.20
2018-06-10T09:44:30.533Z,54.80
2018-06-10T09:47:08.932Z,54.70
2018-06-10T09:49:43.780Z,54.40
2018-06-10T09:52:12.659Z,54.90
2018-06-10T09:57:10.080Z,54.80
2018-06-10T09:59:39.020Z,54.20
2018-06-10T10:02:08.454Z,54.30
2018-06-10T10:04:40.180Z,54.50
2018-06-10T10:09:50.705Z,62.90
2018-06-10T10:12:19.670Z,65.30
2018-06-10T10:14:48.502Z,67.80
2018-06-10T10:19:45.969Z,68.00
2018-06-10T10:22:14.873Z,71.30
2018-06-10T10:24:43.739Z,73.60
2018-06-10T10:27:12.720Z,76.30
2018-06-10T10:29:41.624Z,76.10
2018-06-10T10:32:10.588Z,75.70
2018-06-10T10:34:39.417Z,77.60
2018-06-10T10:37:08.330Z,75.90
2018-06-10T10:39:37.240Z,74.90
2018-06-10T10:42:06.085Z,76.60
2018-06-10T10:44:34.969Z,76.00
2018-06-10T10:47:03.915Z,76.10
2018-06-10T10:49:32.797Z,74.20
2018-06-10T10:52:01.653Z,72.90
2018-06-10T10:54:30.558Z,72.30
2018-06-10T10:56:59.468Z,71.40
2018-06-10T10:59:28.329Z,71.80
2018-06-10T11:01:57.225Z,70.70
2018-06-10T11:04:26.141Z,70.00
2018-06-10T11:06:55.048Z,68.60
2018-06-10T11:09:23.960Z,66.90
2018-06-10T11:11:52.906Z,66.30
2018-06-10T11:14:21.781Z,62.60
2018-06-10T11:19:19.188Z,62.60
2018-06-10T11:21:48.017Z,60.70
2018-06-10T11:24:16.920Z,60.20
2018-06-10T11:26:45.984Z,62.70
2018-06-10T11:29:14.929Z,62.50
2018-06-10T11:31:43.771Z,62.10
2018-06-10T11:34:12.778Z,61.00
2018-06-10T11:36:41.719Z,61.30
2018-06-10T11:39:10.661Z,60.70
2018-06-10T11:41:39.516Z,60.80
2018-06-10T11:44:08.510Z,62.00
2018-06-10T11:46:37.414Z,61.40
2018-06-10T11:49:06.289Z,61.60
2018-06-10T11:51:35.109Z,59.80
2018-06-10T11:54:03.996Z,59.00
2018-06-10T11:56:32.958Z,59.30
2018-06-10T11:59:01.825Z,57.40
2018-06-10T12:01:30.785Z,58.00
2018-06-10T12:06:28.244Z,60.60
2018-06-10T12:08:57.195Z,59.50
2018-06-10T12:11:26.021Z,59.80
2018-06-10T12:13:54.968Z,58.40
2018-06-10T12:16:23.826Z,58.30
2018-06-10T12:18:52.748Z,58.40
2018-06-10T12:21:21.671Z,57.30
2018-06-10T12:23:50.596Z,56.80
2018-06-10T12:26:19.472Z,56.60
2018-06-10T12:28:48.356Z,55.40
2018-06-10T12:31:17.201Z,54.00
2018-06-10T12:33:46.164Z,53.20
2018-06-10T12:36:15.007Z,52.60
2018-06-10T12:38:43.881Z,52.70
2018-06-10T12:41:12.860Z,53.30
2018-06-10T12:43:41.728Z,53.40
2018-06-10T12:46:10.661Z,54.50
2018-06-10T12:48:39.586Z,55.70
2018-06-10T12:51:08.575Z,56.50
2018-06-10T12:53:37.467Z,56.00
2018-06-10T12:56:06.367Z,56.10
2018-06-10T12:58:35.252Z,56.20
2018-06-10T13:01:04.203Z,56.90
2018-06-10T13:03:33.080Z,57.50
2018-06-10T13:06:01.956Z,58.10
2018-06-10T13:10:59.440Z,56.00
2018-06-10T13:15:56.792Z,55.00
2018-06-10T13:18:25.685Z,54.20
2018-06-10T13:20:54.537Z,54.00
2018-06-10T13:23:23.476Z,51.80
2018-06-10T13:28:20.799Z,54.20
2018-06-10T13:30:49.692Z,52.70
2018-06-10T13:33:18.526Z,52.80
2018-06-10T13:38:15.912Z,50.90
2018-06-10T13:40:44.870Z,49.60
2018-06-10T13:43:13.848Z,48.20
2018-06-10T13:45:42.814Z,48.10
2018-06-10T13:48:11.801Z,48.30
2018-06-10T13:50:40.730Z,47.20
2018-06-10T13:53:09.613Z,46.40
2018-06-10T13:55:38.518Z,47.20
2018-06-10T13:58:07.417Z,47.10
2018-06-10T14:00:36.436Z,46.70
2018-06-10T14:03:05.331Z,47.00
2018-06-10T14:05:34.185Z,46.90
2018-06-10T14:08:03.085Z,46.60
2018-06-10T14:10:32.168Z,46.80
2018-06-10T14:13:01.126Z,48.30
2018-06-10T14:15:30.058Z,48.70
2018-06-10T14:17:58.923Z,47.80
2018-06-10T14:20:27.768Z,47.80
2018-06-10T14:22:56.725Z,46.70
2018-06-10T14:25:25.741Z,47.40
2018-06-10T14:27:54.615Z,49.10
2018-06-10T14:30:23.560Z,50.80
2018-06-10T14:32:52.417Z,50.70
2018-06-10T14:35:21.388Z,50.10
2018-06-10T14:37:50.256Z,49.00
2018-06-10T14:40:19.249Z,49.70
2018-06-10T14:42:48.166Z,46.90
2018-06-10T14:45:17.177Z,46.40
2018-06-10T14:50:14.607Z,45.30
2018-06-10T14:52:43.501Z,45.50
2018-06-10T14:55:12.551Z,44.40
2018-06-10T14:57:41.564Z,44.50
2018-06-10T15:00:10.482Z,45.00
2018-06-10T15:02:39.376Z,44.90
2018-06-10T15:05:08.282Z,45.30
2018-06-10T15:07:37.247Z,45.50
2018-06-10T15:10:06.188Z,45.60
2018-06-10T15:15:03.510Z,45.90
2018-06-10T15:17:32.360Z,44.60
2018-06-10T15:20:01.314Z,45.20
2018-06-10T15:22:30.192Z,44.90
2018-06-10T15:24:59.075Z,43.90
2018-06-10T15:27:27.919Z,44.00
2018-06-10T15:32:25.324Z,44.30
2018-06-10T15:34:54.241Z,44.80
2018-06-10T15:37:23.218Z,45.30
2018-06-10T15:39:52.094Z,46.00
2018-06-10T15:42:20.977Z,46.00
2018-06-10T15:44:49.792Z,46.80
2018-06-10T15:47:18.680Z,47.10
2018-06-10T15:49:47.492Z,47.50
2018-06-10T15:52:16.378Z,47.80
2018-06-10T15:54:45.198Z,48.00
2018-06-10T15:57:14.060Z,48.10
2018-06-10T15:59:42.927Z,48.20
2018-06-10T16:02:11.904Z,49.10
2018-06-10T16:04:40.895Z,48.40
2018-06-10T16:07:09.808Z,48.30
2018-06-10T16:09:38.696Z,47.90
2018-06-10T16:12:07.597Z,49.80
2018-06-10T16:17:04.975Z,51.20
2018-06-10T16:19:33.887Z,51.70
2018-06-10T16:22:02.816Z,52.80
2018-06-10T16:24:31.649Z,54.20
2018-06-10T16:27:00.560Z,58.70
2018-06-10T16:31:58.145Z,63.40
2018-06-10T16:36:55.921Z,67.50
2018-06-10T16:39:24.903Z,65.20
2018-06-10T16:41:54.585Z,65.40
2018-06-10T16:44:23.760Z,67.80
2018-06-10T16:46:52.837Z,68.00
2018-06-10T16:49:22.797Z,68.50
2018-06-10T16:51:51.717Z,69.00
2018-06-10T16:56:49.164Z,68.30
2018-06-10T16:59:18.362Z,69.50
2018-06-10T17:01:47.322Z,70.90
2018-06-10T17:04:16.236Z,70.10
2018-06-10T17:06:45.276Z,71.30
2018-06-10T17:11:42.964Z,69.10
2018-06-10T17:16:40.236Z,70.20
2018-06-10T17:19:09.121Z,69.70
2018-06-10T17:21:37.992Z,71.90
2018-06-10T17:24:06.893Z,72.40
2018-06-10T17:29:07.844Z,73.10
2018-06-10T17:34:05.326Z,68.10
2018-06-10T17:39:02.761Z,66.20
2018-06-10T17:41:31.635Z,66.50
2018-06-10T17:44:00.525Z,65.50
2018-06-10T17:46:29.347Z,64.90
2018-06-10T17:48:58.292Z,64.20
2018-06-10T17:51:27.177Z,64.20
2018-06-10T17:53:56.180Z,65.00
2018-06-10T17:56:25.108Z,65.30
2018-06-10T17:58:54.004Z,65.50
2018-06-10T18:01:24.132Z,65.60
2018-06-10T18:03:53.092Z,66.20
2018-06-10T18:06:22.085Z,66.60
2018-06-10T18:08:51.054Z,67.00
2018-06-10T18:11:20.001Z,67.80
2018-06-10T18:13:48.920Z,67.60
2018-06-10T18:16:17.836Z,67.20
2018-06-10T18:18:46.875Z,67.60
2018-06-10T18:21:15.883Z,68.20
2018-06-10T18:23:44.727Z,68.70
2018-06-10T18:26:13.768Z,69.00
2018-06-10T18:28:42.712Z,69.50
2018-06-10T18:31:11.790Z,69.90
2018-06-10T18:33:40.781Z,70.50
2018-06-10T18:36:10.265Z,71.40
2018-06-10T18:38:39.116Z,72.30
2018-06-10T18:41:08.101Z,72.70
2018-06-10T18:43:37.008Z,73.30
2018-06-10T18:46:05.897Z,73.60
2018-06-10T18:48:35.373Z,73.60
2018-06-10T18:51:04.272Z,73.70
2018-06-10T18:53:33.263Z,74.00
2018-06-10T18:56:02.165Z,73.60
2018-06-10T18:58:31.044Z,73.20
2018-06-10T19:00:59.927Z,73.10
2018-06-10T19:03:28.864Z,72.80
2018-06-10T19:05:57.712Z,72.50
2018-06-10T19:08:26.626Z,72.70
2018-06-10T19:10:55.540Z,72.90
2018-06-10T19:13:24.448Z,73.70
2018-06-10T19:15:53.259Z,73.90
2018-06-10T19:18:22.209Z,74.20
2018-06-10T19:23:19.609Z,74.70
2018-06-10T19:25:48.553Z,75.90
2018-06-10T19:28:17.482Z,77.10
2018-06-10T19:30:46.612Z,78.00
2018-06-10T19:33:15.644Z,78.20
2018-06-10T19:38:13.359Z,77.80
2018-06-10T19:40:42.489Z,78.00
2018-06-10T19:43:11.847Z,78.40
2018-06-10T19:45:40.832Z,77.80
2018-06-10T19:50:38.219Z,78.90
2018-06-10T19:53:07.153Z,79.80
2018-06-10T19:55:36.348Z,80.20
2018-06-10T19:58:05.365Z,79.70
2018-06-10T20:00:34.310Z,79.60
2018-06-10T20:03:03.215Z,78.90
2018-06-10T20:05:32.174Z,79.30
2018-06-10T20:08:01.073Z,79.50
2018-06-10T20:10:30.112Z,79.40
2018-06-10T20:12:59.256Z,79.50
2018-06-10T20:15:28.226Z,79.30
2018-06-10T20:17:57.356Z,79.00
2018-06-10T20:20:46.741Z,79.10
2018-06-10T20:23:29.013Z,79.10
2018-06-10T20:25:58.200Z,80.40
2018-06-10T20:28:27.322Z,80.70
2018-06-10T20:30:58.658Z,80.60
2018-06-10T20:33:27.628Z,80.70
2018-06-10T20:35:56.502Z,80.30
2018-06-10T20:41:02.106Z,81.50
2018-06-10T20:43:31.004Z,81.20
2018-06-10T20:46:00.556Z,80.60
2018-06-10T20:48:30.138Z,80.00
2018-06-10T20:50:59.736Z,80.90
2018-06-10T20:53:30.744Z,80.00
2018-06-10T20:55:59.692Z,79.80
2018-06-10T20:58:28.696Z,79.70
2018-06-10T21:00:57.610Z,79.40
2018-06-10T21:05:55.041Z,79.20
2018-06-10T21:08:24.025Z,79.90
2018-06-10T21:10:53.652Z,81.10
2018-06-10T21:13:23.425Z,80.40
2018-06-10T21:15:52.606Z,80.60
2018-06-10T21:18:21.633Z,80.80
2018-06-10T21:20:50.530Z,81.10
2018-06-10T21:23:19.383Z,81.20
2018-06-10T21:25:48.280Z,81.70
2018-06-10T21:28:17.176Z,81.60
2018-06-10T21:30:46.080Z,81.60
2018-06-10T21:33:14.968Z,81.70
2018-06-10T21:35:43.920Z,81.60
2018-06-10T21:38:12.829Z,81.40
2018-06-10T21:40:41.748Z,81.50
2018-06-10T21:43:10.746Z,81.90
2018-06-10T21:45:39.601Z,82.10
2018-06-10T21:48:08.496Z,82.50
2018-06-10T21:50:37.405Z,82.60
2018-06-10T21:53:07.445Z,82.70
2018-06-10T21:55:36.292Z,82.70
2018-06-10T21:58:05.200Z,82.90
2018-06-10T22:00:34.086Z,82.70
2018-06-10T22:03:03.137Z,82.50
2018-06-10T22:05:32.039Z,83.40
2018-06-10T22:08:00.920Z,82.70
2018-06-10T22:10:30.849Z,82.80
2018-06-10T22:13:00.120Z,82.90
2018-06-10T22:15:29.060Z,83.30
2018-06-10T22:17:57.980Z,83.60
2018-06-10T22:22:55.406Z,84.50
2018-06-10T22:25:24.224Z,86.10
2018-06-10T22:27:53.108Z,86.20
2018-06-10T22:30:21.980Z,86.70
2018-06-10T22:32:50.836Z,86.80
2018-06-10T22:35:19.660Z,86.60
2018-06-10T22:37:48.551Z,85.80
2018-06-10T22:40:17.461Z,85.20
2018-06-10T22:42:46.281Z,85.10
2018-06-10T22:45:15.135Z,85.00
2018-06-10T22:50:12.440Z,84.80
2018-06-10T22:52:41.360Z,84.60
2018-06-10T22:55:10.252Z,84.60
2018-06-10T22:57:39.132Z,84.70
2018-06-10T23:00:08.169Z,85.80
2018-06-10T23:05:05.524Z,85.10
2018-06-10T23:12:31.435Z,86.00
2018-06-10T23:15:00.368Z,86.20
2018-06-10T23:17:30.100Z,87.10
2018-06-10T23:19:58.963Z,89.10
2018-06-10T23:24:56.312Z,90.50
2018-06-10T23:27:25.412Z,90.70
2018-06-10T23:29:54.304Z,90.80
2018-06-10T23:32:23.180Z,90.70
2018-06-10T23:34:52.080Z,90.50
2018-06-10T23:37:20.982Z,90.20
2018-06-10T23:39:49.824Z,90.10
2018-06-10T23:42:18.712Z,89.50
2018-06-10T23:44:47.592Z,88.50
2018-06-10T23:47:16.457Z,88.20
2018-06-10T23:49:45.373Z,87.80
2018-06-10T23:52:14.244Z,87.60
2018-06-10T23:54:43.112Z,87.20
2018-06-10T23:57:11.992Z,87.00
